sensor_id;sensor_type;location;lat;lon;timestamp;temperature;humidity
5938;DHT22;2994;51.220;4.412;2023-09-19T00:02:19;19.55;58.70
5938;DHT22;2994;51.220;4.412;2023-09-19T00:04:45;19.36;57.93
5938;DHT22;2994;51.220;4.412;2023-09-19T00:07:10;19.35;58.70
5938;DHT22;2994;51.220;4.412;2023-09-19T00:09:35;19.42;58.19
5938;DHT22;2994;51.220;4.412;2023-09-19T00:12:06;19.37;58.41
5938;DHT22;2994;51.220;4.412;2023-09-19T00:14:32;19.41;57.99
5938;DHT22;2994;51.220;4.412;2023-09-19T00:17:01;19.30;57.41
5938;DHT22;2994;51.220;4.412;2023-09-19T00:19:33;19.35;57.22
5938;DHT22;2994;51.220;4.412;2023-09-19T00:21:59;19.29;56.96
5938;DHT22;2994;51.220;4.412;2023-09-19T00:24:24;19.29;56.74
5938;DHT22;2994;51.220;4.412;2023-09-19T00:26:50;19.28;56.64
5938;DHT22;2994;51.220;4.412;2023-09-19T00:29:15;19.32;56.16
5938;DHT22;2994;51.220;4.412;2023-09-19T00:31:44;19.21;56.58
5938;DHT22;2994;51.220;4.412;2023-09-19T00:34:10;19.05;56.01
5938;DHT22;2994;51.220;4.412;2023-09-19T00:36:39;19.22;55.99
5938;DHT22;2994;51.220;4.412;2023-09-19T00:39:05;19.13;56.19
5938;DHT22;2994;51.220;4.412;2023-09-19T00:41:34;19.25;55.81
5938;DHT22;2994;51.220;4.412;2023-09-19T00:44:02;19.25;56.03
5938;DHT22;2994;51.220;4.412;2023-09-19T00:46:27;19.26;55.90
5938;DHT22;2994;51.220;4.412;2023-09-19T00:48:53;19.16;55.16
5938;DHT22;2994;51.220;4.412;2023-09-19T00:51:20;19.23;55.42
5938;DHT22;2994;51.220;4.412;2023-09-19T00:53:47;19.26;55.07
5938;DHT22;2994;51.220;4.412;2023-09-19T00:56:15;19.20;54.95
5938;DHT22;2994;51.220;4.412;2023-09-19T00:58:44;19.17;54.40
5938;DHT22;2994;51.220;4.412;2023-09-19T01:01:09;19.18;54.48
5938;DHT22;2994;51.220;4.412;2023-09-19T01:03:37;19.13;54.12
5938;DHT22;2994;51.220;4.412;2023-09-19T01:06:02;19.13;54.43
5938;DHT22;2994;51.220;4.412;2023-09-19T01:08:28;19.13;54.42
5938;DHT22;2994;51.220;4.412;2023-09-19T01:11:09;19.13;54.17
5938;DHT22;2994;51.220;4.412;2023-09-19T01:14:02;19.02;54.04
5938;DHT22;2994;51.220;4.412;2023-09-19T01:16:39;19.11;54.07
5938;DHT22;2994;51.220;4.412;2023-09-19T01:19:33;19.02;54.42
5938;DHT22;2994;51.220;4.412;2023-09-19T01:22:26;19.06;53.77
5938;DHT22;2994;51.220;4.412;2023-09-19T01:25:20;19.02;53.87
5938;DHT22;2994;51.220;4.412;2023-09-19T01:28:07;19.02;54.35
5938;DHT22;2994;51.220;4.412;2023-09-19T01:30:40;18.99;54.62
5938;DHT22;2994;51.220;4.412;2023-09-19T01:33:09;18.88;54.68
5938;DHT22;2994;51.220;4.412;2023-09-19T01:35:38;18.94;54.95
5938;DHT22;2994;51.220;4.412;2023-09-19T01:38:05;18.97;54.97
5938;DHT22;2994;51.220;4.412;2023-09-19T01:40:42;18.86;54.84
5938;DHT22;2994;51.220;4.412;2023-09-19T01:43:15;18.95;54.75
5938;DHT22;2994;51.220;4.412;2023-09-19T01:48:20;18.95;54.96
5938;DHT22;2994;51.220;4.412;2023-09-19T01:50:58;18.95;54.68
5938;DHT22;2994;51.220;4.412;2023-09-19T01:53:33;18.92;54.97
5938;DHT22;2994;51.220;4.412;2023-09-19T01:55:59;18.87;54.64
5938;DHT22;2994;51.220;4.412;2023-09-19T01:58:45;18.82;55.61
5938;DHT22;2994;51.220;4.412;2023-09-19T02:01:17;18.82;55.15
5938;DHT22;2994;51.220;4.412;2023-09-19T02:03:44;18.82;55.41
5938;DHT22;2994;51.220;4.412;2023-09-19T02:06:17;18.88;55.65
5938;DHT22;2994;51.220;4.412;2023-09-19T02:08:44;18.82;55.46
5938;DHT22;2994;51.220;4.412;2023-09-19T02:11:11;18.79;55.23
5938;DHT22;2994;51.220;4.412;2023-09-19T02:13:37;18.80;55.74
5938;DHT22;2994;51.220;4.412;2023-09-19T02:16:03;18.83;55.86
5938;DHT22;2994;51.220;4.412;2023-09-19T02:18:30;18.76;55.82
5938;DHT22;2994;51.220;4.412;2023-09-19T02:20:56;18.85;55.97
5938;DHT22;2994;51.220;4.412;2023-09-19T02:23:24;18.88;56.19
5938;DHT22;2994;51.220;4.412;2023-09-19T02:25:56;18.86;56.25
5938;DHT22;2994;51.220;4.412;2023-09-19T02:28:31;18.92;56.31
5938;DHT22;2994;51.220;4.412;2023-09-19T02:30:58;18.92;56.45
5938;DHT22;2994;51.220;4.412;2023-09-19T02:33:23;18.95;56.47
5938;DHT22;2994;51.220;4.412;2023-09-19T02:35:49;18.96;56.57
5938;DHT22;2994;51.220;4.412;2023-09-19T02:38:15;18.93;57.03
5938;DHT22;2994;51.220;4.412;2023-09-19T02:40:46;18.96;57.43
5938;DHT22;2994;51.220;4.412;2023-09-19T02:43:11;18.95;57.37
5938;DHT22;2994;51.220;4.412;2023-09-19T02:45:37;18.95;57.73
5938;DHT22;2994;51.220;4.412;2023-09-19T02:48:03;18.93;57.64
5938;DHT22;2994;51.220;4.412;2023-09-19T02:50:29;18.92;58.10
5938;DHT22;2994;51.220;4.412;2023-09-19T02:52:54;18.85;58.24
5938;DHT22;2994;51.220;4.412;2023-09-19T02:55:20;18.83;58.43
5938;DHT22;2994;51.220;4.412;2023-09-19T02:57:51;18.88;58.14
5938;DHT22;2994;51.220;4.412;2023-09-19T03:00:18;18.86;58.33
5938;DHT22;2994;51.220;4.412;2023-09-19T03:02:52;18.89;58.39
5938;DHT22;2994;51.220;4.412;2023-09-19T03:05:18;18.92;58.58
5938;DHT22;2994;51.220;4.412;2023-09-19T03:07:44;18.86;58.90
5938;DHT22;2994;51.220;4.412;2023-09-19T03:10:12;18.89;58.64
5938;DHT22;2994;51.220;4.412;2023-09-19T03:12:38;18.92;58.52
5938;DHT22;2994;51.220;4.412;2023-09-19T03:15:05;18.92;58.81
5938;DHT22;2994;51.220;4.412;2023-09-19T03:17:31;18.78;59.15
5938;DHT22;2994;51.220;4.412;2023-09-19T03:19:57;18.83;58.99
5938;DHT22;2994;51.220;4.412;2023-09-19T03:22:23;18.92;58.67
5938;DHT22;2994;51.220;4.412;2023-09-19T03:24:50;18.86;58.79
5938;DHT22;2994;51.220;4.412;2023-09-19T03:27:19;18.92;58.96
5938;DHT22;2994;51.220;4.412;2023-09-19T03:29:46;18.93;59.03
5938;DHT22;2994;51.220;4.412;2023-09-19T03:32:12;18.88;59.41
5938;DHT22;2994;51.220;4.412;2023-09-19T03:34:38;18.93;59.57
5938;DHT22;2994;51.220;4.412;2023-09-19T03:37:08;18.93;59.29
5938;DHT22;2994;51.220;4.412;2023-09-19T03:39:34;18.94;59.46
5938;DHT22;2994;51.220;4.412;2023-09-19T03:42:01;18.83;59.90
5938;DHT22;2994;51.220;4.412;2023-09-19T03:44:26;18.79;60.50
5938;DHT22;2994;51.220;4.412;2023-09-19T03:46:52;18.67;61.00
5938;DHT22;2994;51.220;4.412;2023-09-19T03:49:17;18.73;60.97
5938;DHT22;2994;51.220;4.412;2023-09-19T03:51:44;18.72;61.42
5938;DHT22;2994;51.220;4.412;2023-09-19T03:54:09;18.68;61.92
5938;DHT22;2994;51.220;4.412;2023-09-19T03:56:35;18.69;61.76
5938;DHT22;2994;51.220;4.412;2023-09-19T03:59:00;18.63;62.29
5938;DHT22;2994;51.220;4.412;2023-09-19T04:01:26;18.62;62.55
5938;DHT22;2994;51.220;4.412;2023-09-19T04:03:53;18.62;62.73
5938;DHT22;2994;51.220;4.412;2023-09-19T04:06:19;18.64;62.69
5938;DHT22;2994;51.220;4.412;2023-09-19T04:08:44;18.39;63.24
5938;DHT22;2994;51.220;4.412;2023-09-19T04:11:11;18.48;63.32
5938;DHT22;2994;51.220;4.412;2023-09-19T04:13:37;18.57;63.24
5938;DHT22;2994;51.220;4.412;2023-09-19T04:16:03;18.57;63.11
5938;DHT22;2994;51.220;4.412;2023-09-19T04:18:32;18.57;63.27
5938;DHT22;2994;51.220;4.412;2023-09-19T04:20:59;18.62;63.28
5938;DHT22;2994;51.220;4.412;2023-09-19T04:23:27;18.63;63.08
5938;DHT22;2994;51.220;4.412;2023-09-19T04:25:53;18.61;63.36
5938;DHT22;2994;51.220;4.412;2023-09-19T04:28:24;18.66;63.29
5938;DHT22;2994;51.220;4.412;2023-09-19T04:30:56;18.53;63.83
5938;DHT22;2994;51.220;4.412;2023-09-19T04:33:21;18.59;63.61
5938;DHT22;2994;51.220;4.412;2023-09-19T04:35:51;18.55;63.64
5938;DHT22;2994;51.220;4.412;2023-09-19T04:38:20;18.36;63.90
5938;DHT22;2994;51.220;4.412;2023-09-19T04:40:46;18.38;64.27
5938;DHT22;2994;51.220;4.412;2023-09-19T04:43:11;18.49;63.87
5938;DHT22;2994;51.220;4.412;2023-09-19T04:45:38;18.50;64.20
5938;DHT22;2994;51.220;4.412;2023-09-19T04:48:04;18.51;64.11
5938;DHT22;2994;51.220;4.412;2023-09-19T04:50:32;18.47;64.40
5938;DHT22;2994;51.220;4.412;2023-09-19T04:52:59;18.50;64.30
5938;DHT22;2994;51.220;4.412;2023-09-19T04:55:26;18.52;64.20
5938;DHT22;2994;51.220;4.412;2023-09-19T04:57:52;18.54;64.30
5938;DHT22;2994;51.220;4.412;2023-09-19T05:00:21;18.54;64.19
5938;DHT22;2994;51.220;4.412;2023-09-19T05:02:56;18.52;64.36
5938;DHT22;2994;51.220;4.412;2023-09-19T05:05:24;18.55;64.14
5938;DHT22;2994;51.220;4.412;2023-09-19T05:07:52;18.51;64.26
5938;DHT22;2994;51.220;4.412;2023-09-19T05:10:21;18.54;64.45
5938;DHT22;2994;51.220;4.412;2023-09-19T05:12:47;18.48;64.55
5938;DHT22;2994;51.220;4.412;2023-09-19T05:15:14;18.52;64.43
5938;DHT22;2994;51.220;4.412;2023-09-19T05:17:48;18.48;64.79
5938;DHT22;2994;51.220;4.412;2023-09-19T05:20:14;18.53;64.61
5938;DHT22;2994;51.220;4.412;2023-09-19T05:22:43;18.55;64.43
5938;DHT22;2994;51.220;4.412;2023-09-19T05:25:11;18.50;64.48
5938;DHT22;2994;51.220;4.412;2023-09-19T05:27:42;18.50;64.53
5938;DHT22;2994;51.220;4.412;2023-09-19T05:30:08;18.51;64.55
5938;DHT22;2994;51.220;4.412;2023-09-19T05:32:33;18.41;64.94
5938;DHT22;2994;51.220;4.412;2023-09-19T05:34:59;18.42;64.85
5938;DHT22;2994;51.220;4.412;2023-09-19T05:37:24;18.43;64.89
5938;DHT22;2994;51.220;4.412;2023-09-19T05:39:51;18.42;65.09
5938;DHT22;2994;51.220;4.412;2023-09-19T05:42:18;18.40;65.05
5938;DHT22;2994;51.220;4.412;2023-09-19T05:44:43;18.41;65.04
5938;DHT22;2994;51.220;4.412;2023-09-19T05:47:09;18.41;64.92
5938;DHT22;2994;51.220;4.412;2023-09-19T05:49:35;18.40;65.01
5938;DHT22;2994;51.220;4.412;2023-09-19T05:52:05;18.37;65.12
5938;DHT22;2994;51.220;4.412;2023-09-19T05:54:30;18.29;65.50
5938;DHT22;2994;51.220;4.412;2023-09-19T05:56:56;18.38;65.04
5938;DHT22;2994;51.220;4.412;2023-09-19T05:59:23;18.39;65.03
5938;DHT22;2994;51.220;4.412;2023-09-19T06:01:49;18.36;65.29
5938;DHT22;2994;51.220;4.412;2023-09-19T06:04:14;18.37;65.30
5938;DHT22;2994;51.220;4.412;2023-09-19T06:06:40;18.20;65.98
5938;DHT22;2994;51.220;4.412;2023-09-19T06:09:06;18.30;65.69
5938;DHT22;2994;51.220;4.412;2023-09-19T06:11:34;18.32;65.57
5938;DHT22;2994;51.220;4.412;2023-09-19T06:14:03;18.35;65.66
5938;DHT22;2994;51.220;4.412;2023-09-19T06:16:30;18.40;65.42
5938;DHT22;2994;51.220;4.412;2023-09-19T06:18:57;18.40;65.54
5938;DHT22;2994;51.220;4.412;2023-09-19T06:21:23;18.47;65.17
5938;DHT22;2994;51.220;4.412;2023-09-19T06:23:48;18.46;65.36
5938;DHT22;2994;51.220;4.412;2023-09-19T06:26:14;18.42;65.50
5938;DHT22;2994;51.220;4.412;2023-09-19T06:28:40;18.43;65.72
5938;DHT22;2994;51.220;4.412;2023-09-19T06:31:06;18.48;65.59
5938;DHT22;2994;51.220;4.412;2023-09-19T06:33:35;18.53;65.34
5938;DHT22;2994;51.220;4.412;2023-09-19T06:36:04;18.50;65.49
5938;DHT22;2994;51.220;4.412;2023-09-19T06:38:30;18.52;65.46
5938;DHT22;2994;51.220;4.412;2023-09-19T06:40:56;18.53;65.55
5938;DHT22;2994;51.220;4.412;2023-09-19T06:43:22;18.56;65.59
5938;DHT22;2994;51.220;4.412;2023-09-19T06:45:49;18.61;65.24
5938;DHT22;2994;51.220;4.412;2023-09-19T06:48:15;18.57;65.37
5938;DHT22;2994;51.220;4.412;2023-09-19T06:50:41;18.39;65.89
5938;DHT22;2994;51.220;4.412;2023-09-19T06:53:06;18.41;65.88
5938;DHT22;2994;51.220;4.412;2023-09-19T06:55:32;18.56;65.46
5938;DHT22;2994;51.220;4.412;2023-09-19T06:58:00;18.58;65.56
5938;DHT22;2994;51.220;4.412;2023-09-19T07:00:26;18.51;65.75
5938;DHT22;2994;51.220;4.412;2023-09-19T07:02:57;18.53;65.60
5938;DHT22;2994;51.220;4.412;2023-09-19T07:05:27;18.55;65.51
5938;DHT22;2994;51.220;4.412;2023-09-19T07:07:53;18.51;65.84
5938;DHT22;2994;51.220;4.412;2023-09-19T07:10:20;18.58;65.62
5938;DHT22;2994;51.220;4.412;2023-09-19T07:12:54;18.67;65.49
5938;DHT22;2994;51.220;4.412;2023-09-19T07:15:20;18.72;65.33
5938;DHT22;2994;51.220;4.412;2023-09-19T07:17:46;18.77;65.32
5938;DHT22;2994;51.220;4.412;2023-09-19T07:20:12;18.82;65.17
5938;DHT22;2994;51.220;4.412;2023-09-19T07:22:41;18.82;65.17
5938;DHT22;2994;51.220;4.412;2023-09-19T07:25:07;18.85;65.05
5938;DHT22;2994;51.220;4.412;2023-09-19T07:27:33;18.94;64.82
5938;DHT22;2994;51.220;4.412;2023-09-19T07:29:59;18.99;64.62
5938;DHT22;2994;51.220;4.412;2023-09-19T07:32:24;19.02;64.60
5938;DHT22;2994;51.220;4.412;2023-09-19T07:34:50;19.03;64.54
5938;DHT22;2994;51.220;4.412;2023-09-19T07:37:16;18.97;64.81
5938;DHT22;2994;51.220;4.412;2023-09-19T07:39:42;19.10;64.34
5938;DHT22;2994;51.220;4.412;2023-09-19T07:42:08;19.08;64.30
5938;DHT22;2994;51.220;4.412;2023-09-19T07:44:35;19.12;64.19
5938;DHT22;2994;51.220;4.412;2023-09-19T07:47:01;19.07;64.37
5938;DHT22;2994;51.220;4.412;2023-09-19T07:49:28;19.12;64.30
5938;DHT22;2994;51.220;4.412;2023-09-19T07:51:54;19.21;63.80
5938;DHT22;2994;51.220;4.412;2023-09-19T07:54:20;19.18;63.97
5938;DHT22;2994;51.220;4.412;2023-09-19T07:56:46;19.21;64.05
5938;DHT22;2994;51.220;4.412;2023-09-19T07:59:12;19.26;63.93
5938;DHT22;2994;51.220;4.412;2023-09-19T08:01:38;19.37;63.49
5938;DHT22;2994;51.220;4.412;2023-09-19T08:04:07;19.31;63.47
5938;DHT22;2994;51.220;4.412;2023-09-19T08:06:32;19.21;63.94
5938;DHT22;2994;51.220;4.412;2023-09-19T08:08:58;19.27;63.51
5938;DHT22;2994;51.220;4.412;2023-09-19T08:11:25;19.37;63.38
5938;DHT22;2994;51.220;4.412;2023-09-19T08:13:51;19.38;63.21
5938;DHT22;2994;51.220;4.412;2023-09-19T08:16:17;19.42;63.18
5938;DHT22;2994;51.220;4.412;2023-09-19T08:18:48;19.57;62.70
5938;DHT22;2994;51.220;4.412;2023-09-19T08:21:17;19.57;62.72
5938;DHT22;2994;51.220;4.412;2023-09-19T08:23:43;19.55;62.74
5938;DHT22;2994;51.220;4.412;2023-09-19T08:26:18;19.58;62.48
5938;DHT22;2994;51.220;4.412;2023-09-19T08:34:53;19.99;61.15
5938;DHT22;2994;51.220;4.412;2023-09-19T08:37:19;20.10;60.91
5938;DHT22;2994;51.220;4.412;2023-09-19T08:39:45;20.12;61.12
5938;DHT22;2994;51.220;4.412;2023-09-19T08:44:48;20.01;61.21
5938;DHT22;2994;51.220;4.412;2023-09-19T09:03:05;20.27;60.49
5938;DHT22;2994;51.220;4.412;2023-09-19T09:08:07;20.35;59.85
5938;DHT22;2994;51.220;4.412;2023-09-19T09:10:32;20.46;59.64
5938;DHT22;2994;51.220;4.412;2023-09-19T09:12:59;20.53;59.58
5938;DHT22;2994;51.220;4.412;2023-09-19T09:15:29;20.47;59.58
5938;DHT22;2994;51.220;4.412;2023-09-19T09:17:59;20.54;59.21
5938;DHT22;2994;51.220;4.412;2023-09-19T09:41:15;20.59;57.58
5938;DHT22;2994;51.220;4.412;2023-09-19T09:44:17;20.83;57.20
5938;DHT22;2994;51.220;4.412;2023-09-19T09:46:48;20.94;56.47
5938;DHT22;2994;51.220;4.412;2023-09-19T09:49:24;20.80;55.78
5938;DHT22;2994;51.220;4.412;2023-09-19T09:52:05;20.77;56.04
5938;DHT22;2994;51.220;4.412;2023-09-19T09:55:01;20.92;55.01
5938;DHT22;2994;51.220;4.412;2023-09-19T10:02:42;21.09;53.49
5938;DHT22;2994;51.220;4.412;2023-09-19T10:05:18;21.00;54.10
5938;DHT22;2994;51.220;4.412;2023-09-19T10:07:48;20.80;53.91
5938;DHT22;2994;51.220;4.412;2023-09-19T10:10:38;20.95;53.69
5938;DHT22;2994;51.220;4.412;2023-09-19T10:13:13;21.11;53.72
5938;DHT22;2994;51.220;4.412;2023-09-19T10:15:44;21.08;53.96
5938;DHT22;2994;51.220;4.412;2023-09-19T10:20:51;21.27;53.74
5938;DHT22;2994;51.220;4.412;2023-09-19T10:23:18;21.44;53.27
5938;DHT22;2994;51.220;4.412;2023-09-19T10:25:51;21.47;52.70
5938;DHT22;2994;51.220;4.412;2023-09-19T10:28:18;21.53;53.19
5938;DHT22;2994;51.220;4.412;2023-09-19T10:30:49;21.69;53.48
5938;DHT22;2994;51.220;4.412;2023-09-19T10:33:23;21.75;53.23
5938;DHT22;2994;51.220;4.412;2023-09-19T10:35:52;21.76;53.52
5938;DHT22;2994;51.220;4.412;2023-09-19T10:38:18;21.64;53.88
5938;DHT22;2994;51.220;4.412;2023-09-19T10:40:51;21.82;53.43
5938;DHT22;2994;51.220;4.412;2023-09-19T10:43:19;21.78;53.70
5938;DHT22;2994;51.220;4.412;2023-09-19T10:45:45;21.90;53.28
5938;DHT22;2994;51.220;4.412;2023-09-19T10:48:14;21.87;53.49
5938;DHT22;2994;51.220;4.412;2023-09-19T10:50:55;21.74;53.11
5938;DHT22;2994;51.220;4.412;2023-09-19T10:53:25;21.82;53.33
5938;DHT22;2994;51.220;4.412;2023-09-19T10:55:56;21.77;53.35
5938;DHT22;2994;51.220;4.412;2023-09-19T10:58:29;21.89;53.39
5938;DHT22;2994;51.220;4.412;2023-09-19T11:00:59;22.10;52.96
5938;DHT22;2994;51.220;4.412;2023-09-19T11:03:32;22.10;52.78
5938;DHT22;2994;51.220;4.412;2023-09-19T11:11:51;22.26;52.16
5938;DHT22;2994;51.220;4.412;2023-09-19T11:30:45;22.37;52.08
5938;DHT22;2994;51.220;4.412;2023-09-19T11:33:31;22.43;51.90
5938;DHT22;2994;51.220;4.412;2023-09-19T11:43:53;22.17;51.77
5938;DHT22;2994;51.220;4.412;2023-09-19T11:46:24;21.91;52.30
5938;DHT22;2994;51.220;4.412;2023-09-19T11:48:51;22.01;52.10
5938;DHT22;2994;51.220;4.412;2023-09-19T11:51:21;22.10;52.17
5938;DHT22;2994;51.220;4.412;2023-09-19T11:53:54;22.22;52.27
5938;DHT22;2994;51.220;4.412;2023-09-19T11:56:23;22.35;52.00
5938;DHT22;2994;51.220;4.412;2023-09-19T11:58:56;22.44;51.37
5938;DHT22;2994;51.220;4.412;2023-09-19T12:03:53;22.37;51.54
5938;DHT22;2994;51.220;4.412;2023-09-19T12:12:18;22.47;51.29
5938;DHT22;2994;51.220;4.412;2023-09-19T12:18:07;22.60;51.00
5938;DHT22;2994;51.220;4.412;2023-09-19T12:26:05;22.56;51.27
5938;DHT22;2994;51.220;4.412;2023-09-19T12:28:41;22.55;51.40
5938;DHT22;2994;51.220;4.412;2023-09-19T12:31:30;22.73;51.24
5938;DHT22;2994;51.220;4.412;2023-09-19T12:52:15;22.43;51.77
5938;DHT22;2994;51.220;4.412;2023-09-19T12:54:45;22.39;51.69
5938;DHT22;2994;51.220;4.412;2023-09-19T12:57:32;22.43;51.55
5938;DHT22;2994;51.220;4.412;2023-09-19T13:00:11;22.41;52.01
5938;DHT22;2994;51.220;4.412;2023-09-19T13:08:31;22.56;51.77
5938;DHT22;2994;51.220;4.412;2023-09-19T13:11:05;22.53;51.73
5938;DHT22;2994;51.220;4.412;2023-09-19T13:22:45;22.35;52.33
5938;DHT22;2994;51.220;4.412;2023-09-19T13:28:26;22.54;52.40
5938;DHT22;2994;51.220;4.412;2023-09-19T13:38:41;22.57;52.17
5938;DHT22;2994;51.220;4.412;2023-09-19T13:46:32;22.84;51.82
5938;DHT22;2994;51.220;4.412;2023-09-19T13:49:03;22.91;51.89
5938;DHT22;2994;51.220;4.412;2023-09-19T13:53:58;23.13;51.14
5938;DHT22;2994;51.220;4.412;2023-09-19T13:56:26;23.10;51.12
5938;DHT22;2994;51.220;4.412;2023-09-19T13:58:56;23.08;51.14
5938;DHT22;2994;51.220;4.412;2023-09-19T14:01:25;23.05;51.04
5938;DHT22;2994;51.220;4.412;2023-09-19T14:04:01;22.77;51.89
5938;DHT22;2994;51.220;4.412;2023-09-19T14:06:34;23.11;51.30
5938;DHT22;2994;51.220;4.412;2023-09-19T14:09:05;23.03;51.75
5938;DHT22;2994;51.220;4.412;2023-09-19T14:11:36;23.16;51.21
5938;DHT22;2994;51.220;4.412;2023-09-19T14:14:02;23.13;51.16
5938;DHT22;2994;51.220;4.412;2023-09-19T14:19:13;22.92;51.50
5938;DHT22;2994;51.220;4.412;2023-09-19T14:21:44;22.97;51.53
5938;DHT22;2994;51.220;4.412;2023-09-19T14:24:18;22.97;51.27
5938;DHT22;2994;51.220;4.412;2023-09-19T14:26:46;22.67;52.15
5938;DHT22;2994;51.220;4.412;2023-09-19T14:31:42;22.38;52.75
5938;DHT22;2994;51.220;4.412;2023-09-19T14:34:08;22.55;52.54
5938;DHT22;2994;51.220;4.412;2023-09-19T14:36:37;22.60;52.56
5938;DHT22;2994;51.220;4.412;2023-09-19T14:39:07;22.58;53.02
5938;DHT22;2994;51.220;4.412;2023-09-19T14:41:38;22.55;53.18
5938;DHT22;2994;51.220;4.412;2023-09-19T14:44:07;22.61;52.76
5938;DHT22;2994;51.220;4.412;2023-09-19T14:46:38;22.42;53.04
5938;DHT22;2994;51.220;4.412;2023-09-19T14:49:06;22.48;53.01
5938;DHT22;2994;51.220;4.412;2023-09-19T14:52:02;22.54;52.71
5938;DHT22;2994;51.220;4.412;2023-09-19T15:02:46;22.38;53.80
5938;DHT22;2994;51.220;4.412;2023-09-19T15:05:32;22.37;53.55
5938;DHT22;2994;51.220;4.412;2023-09-19T15:08:11;22.36;53.68
5938;DHT22;2994;51.220;4.412;2023-09-19T15:13:26;22.07;54.23
5938;DHT22;2994;51.220;4.412;2023-09-19T15:16:01;22.22;54.33
5938;DHT22;2994;51.220;4.412;2023-09-19T15:26:25;22.04;55.16
5938;DHT22;2994;51.220;4.412;2023-09-19T15:29:10;22.18;54.76
5938;DHT22;2994;51.220;4.412;2023-09-19T15:31:36;22.19;54.47
5938;DHT22;2994;51.220;4.412;2023-09-19T15:34:03;21.98;55.01
5938;DHT22;2994;51.220;4.412;2023-09-19T15:36:29;22.17;54.70
5938;DHT22;2994;51.220;4.412;2023-09-19T15:39:02;22.26;54.23
5938;DHT22;2994;51.220;4.412;2023-09-19T15:41:33;22.14;54.65
5938;DHT22;2994;51.220;4.412;2023-09-19T15:49:04;22.20;54.71
5938;DHT22;2994;51.220;4.412;2023-09-19T15:51:30;22.22;54.63
5938;DHT22;2994;51.220;4.412;2023-09-19T15:53:56;22.18;54.87
5938;DHT22;2994;51.220;4.412;2023-09-19T15:56:23;22.17;54.95
5938;DHT22;2994;51.220;4.412;2023-09-19T15:58:50;22.20;54.91
5938;DHT22;2994;51.220;4.412;2023-09-19T16:01:17;22.21;54.91
5938;DHT22;2994;51.220;4.412;2023-09-19T16:03:46;22.23;55.10
5938;DHT22;2994;51.220;4.412;2023-09-19T16:06:16;22.18;55.06
5938;DHT22;2994;51.220;4.412;2023-09-19T16:08:47;22.18;55.33
5938;DHT22;2994;51.220;4.412;2023-09-19T16:11:13;22.21;55.39
5938;DHT22;2994;51.220;4.412;2023-09-19T16:13:40;22.20;55.41
5938;DHT22;2994;51.220;4.412;2023-09-19T16:16:11;22.11;55.67
5938;DHT22;2994;51.220;4.412;2023-09-19T16:18:53;22.04;56.00
5938;DHT22;2994;51.220;4.412;2023-09-19T16:21:23;22.02;55.97
5938;DHT22;2994;51.220;4.412;2023-09-19T16:23:51;22.03;56.03
5938;DHT22;2994;51.220;4.412;2023-09-19T16:26:19;22.08;56.03
5938;DHT22;2994;51.220;4.412;2023-09-19T16:28:46;21.88;56.52
5938;DHT22;2994;51.220;4.412;2023-09-19T16:31:12;22.02;56.13
5938;DHT22;2994;51.220;4.412;2023-09-19T16:33:40;21.96;56.13
5938;DHT22;2994;51.220;4.412;2023-09-19T16:36:09;21.88;56.40
5938;DHT22;2994;51.220;4.412;2023-09-19T16:38:35;21.88;56.45
5938;DHT22;2994;51.220;4.412;2023-09-19T16:41:01;21.76;57.06
5938;DHT22;2994;51.220;4.412;2023-09-19T16:43:27;21.94;56.58
5938;DHT22;2994;51.220;4.412;2023-09-19T16:46:06;21.99;56.45
5938;DHT22;2994;51.220;4.412;2023-09-19T16:48:38;21.97;56.45
5938;DHT22;2994;51.220;4.412;2023-09-19T16:51:06;21.85;56.90
5938;DHT22;2994;51.220;4.412;2023-09-19T16:53:52;21.95;56.81
5938;DHT22;2994;51.220;4.412;2023-09-19T16:56:19;21.98;56.70
5938;DHT22;2994;51.220;4.412;2023-09-19T16:58:47;21.93;56.71
5938;DHT22;2994;51.220;4.412;2023-09-19T17:01:14;21.59;57.43
5938;DHT22;2994;51.220;4.412;2023-09-19T17:03:49;21.70;57.40
5938;DHT22;2994;51.220;4.412;2023-09-19T17:06:16;21.65;57.88
5938;DHT22;2994;51.220;4.412;2023-09-19T17:08:43;21.60;58.03
5938;DHT22;2994;51.220;4.412;2023-09-19T17:11:12;21.73;57.99
5938;DHT22;2994;51.220;4.412;2023-09-19T17:13:39;21.57;58.73
5938;DHT22;2994;51.220;4.412;2023-09-19T17:16:10;21.37;60.20
5938;DHT22;2994;51.220;4.412;2023-09-19T17:18:52;21.35;60.73
5938;DHT22;2994;51.220;4.412;2023-09-19T17:21:18;21.47;60.87
5938;DHT22;2994;51.220;4.412;2023-09-19T17:23:44;21.57;60.83
5938;DHT22;2994;51.220;4.412;2023-09-19T17:26:11;21.43;61.20
5938;DHT22;2994;51.220;4.412;2023-09-19T17:28:37;21.44;61.13
5938;DHT22;2994;51.220;4.412;2023-09-19T17:31:18;21.42;61.37
5938;DHT22;2994;51.220;4.412;2023-09-19T17:33:46;21.42;61.41
5938;DHT22;2994;51.220;4.412;2023-09-19T17:36:14;21.30;61.93
5938;DHT22;2994;51.220;4.412;2023-09-19T17:38:41;21.38;61.69
5938;DHT22;2994;51.220;4.412;2023-09-19T17:41:10;21.22;62.63
5938;DHT22;2994;51.220;4.412;2023-09-19T17:43:40;21.27;62.78
5938;DHT22;2994;51.220;4.412;2023-09-19T17:48:38;21.17;63.51
5938;DHT22;2994;51.220;4.412;2023-09-19T17:51:06;21.20;63.52
5938;DHT22;2994;51.220;4.412;2023-09-19T17:53:35;21.11;63.92
5938;DHT22;2994;51.220;4.412;2023-09-19T17:56:02;21.18;63.64
5938;DHT22;2994;51.220;4.412;2023-09-19T17:58:31;21.16;63.83
5938;DHT22;2994;51.220;4.412;2023-09-19T18:01:07;21.13;63.83
5938;DHT22;2994;51.220;4.412;2023-09-19T18:03:34;21.16;64.05
5938;DHT22;2994;51.220;4.412;2023-09-19T18:06:00;21.15;64.07
5938;DHT22;2994;51.220;4.412;2023-09-19T18:08:26;21.14;63.99
5938;DHT22;2994;51.220;4.412;2023-09-19T18:10:52;21.08;64.08
5938;DHT22;2994;51.220;4.412;2023-09-19T18:13:18;21.06;63.94
5938;DHT22;2994;51.220;4.412;2023-09-19T18:15:43;21.07;63.75
5938;DHT22;2994;51.220;4.412;2023-09-19T18:18:09;21.09;63.51
5938;DHT22;2994;51.220;4.412;2023-09-19T18:20:37;21.01;63.64
5938;DHT22;2994;51.220;4.412;2023-09-19T18:23:06;21.05;63.46
5938;DHT22;2994;51.220;4.412;2023-09-19T18:25:32;21.10;62.98
5938;DHT22;2994;51.220;4.412;2023-09-19T18:27:57;21.09;63.01
5938;DHT22;2994;51.220;4.412;2023-09-19T18:30:23;21.07;63.02
5938;DHT22;2994;51.220;4.412;2023-09-19T18:32:48;21.07;62.83
5938;DHT22;2994;51.220;4.412;2023-09-19T18:35:20;21.15;62.50
5938;DHT22;2994;51.220;4.412;2023-09-19T18:37:46;21.13;62.52
5938;DHT22;2994;51.220;4.412;2023-09-19T18:40:13;21.11;62.22
5938;DHT22;2994;51.220;4.412;2023-09-19T18:42:39;21.09;62.41
5938;DHT22;2994;51.220;4.412;2023-09-19T18:45:09;21.09;62.20
5938;DHT22;2994;51.220;4.412;2023-09-19T18:47:37;21.11;62.08
5938;DHT22;2994;51.220;4.412;2023-09-19T18:50:04;21.05;62.30
5938;DHT22;2994;51.220;4.412;2023-09-19T18:52:30;21.13;61.94
5938;DHT22;2994;51.220;4.412;2023-09-19T18:54:56;21.13;61.83
5938;DHT22;2994;51.220;4.412;2023-09-19T18:57:22;21.10;61.80
5938;DHT22;2994;51.220;4.412;2023-09-19T18:59:47;21.06;61.99
5938;DHT22;2994;51.220;4.412;2023-09-19T19:02:13;21.13;61.79
5938;DHT22;2994;51.220;4.412;2023-09-19T19:04:39;21.11;61.81
5938;DHT22;2994;51.220;4.412;2023-09-19T19:07:07;21.10;61.72
5938;DHT22;2994;51.220;4.412;2023-09-19T19:09:37;21.13;61.57
5938;DHT22;2994;51.220;4.412;2023-09-19T19:12:03;21.18;61.34
5938;DHT22;2994;51.220;4.412;2023-09-19T19:14:29;21.11;61.41
5938;DHT22;2994;51.220;4.412;2023-09-19T19:16:54;21.06;61.50
5938;DHT22;2994;51.220;4.412;2023-09-19T19:19:26;21.11;61.45
5938;DHT22;2994;51.220;4.412;2023-09-19T19:21:52;21.10;61.44
5938;DHT22;2994;51.220;4.412;2023-09-19T19:24:18;21.18;61.04